Hall Beach Airport
CYUX : now visible

Airfield :











YOU CAN JOIN US ON...

 
LOGIN :

Register | Disclaimer

   EN    FR    IT 

 









Legend :    VFR   Marginal VFR   IFR   Intensive IFR   Very Intensive IFR
Visi :
Ceiling :
>= 8 km
>= 3000ft
5 to 8 km
1000 to 3000 ft
1500m to 5 km
500 to 1000 ft
800 to 1500m
200 to 500 ft
< 800m
< 200 ft
Symbols :   Thunderstorms  Fog  Heavy snow  Heavy precipitations  Wind > 20 kt






- Airport Elevation : 27 ft
- IATA code : YUX


CYUX - Hall Beach

CURRENT METAR :
  • 181900Z 24010KT 10SM -SN SCT009 BKN031 01/M01 A2961 RMK ST4SC3 SLP028

EXPIRED METARs :
  • 181824Z 24011KT 5SM -SN BKN009 BKN019 00/M01 A2961 RMK ST5SC2 CIG RAG SLP030
  • 181800Z 24012KT 3SM -SN BR BKN011 OVC032 00/00 A2961 RMK SF5SC3 SLP030
  • 181709Z 27009KT 4SM -SN BR SCT007 OVC030 M00/M01 A2963 RMK SF3SC5 SLP035
  • 181643Z 26006KT 1 1/4SM -SN BR FEW009 OVC021 M01/M01 A2963 RMK ST2SC6 SLP037

TAF TAF CYUX
Valid from the 18 at 19:00 until the 19 at 07:00 UTC


181838Z 1819/1907 25012KT P6SM -SN SCT012 OVC030
TEMPO 1819/1907 2SM -SN BR BKN008 OVC015
BECMG 1822/1824 29012KT RMK NXT FCST BY 190100Z
CZEG FIR / North America



MET'MAP, your aeronautical weather chart ! - Copyright ORBIFLY December 2007 - Disclaimer

ORBIFLY MET'MAP TEAM :

Programming & Development : Alexandra Zaïnal
Concept & original design : Baudouin d'Aumeries
Assistance for programming : Marc-Olivier Méhu
Technical & hardware support : Manuel Goepfert

Contact : metmap@orbifly.com




SOURCES & CREDITS :

   NOAA       Earth
Advisory